sensor_id;sensor_type;location;lat;lon;timestamp;P1;durP1;ratioP1;P2;durP2;ratioP2
56321;SDS011;42227;6.376;-10.782;2022-10-13T00:01:09;24.80;;;16.33;;
56321;SDS011;42227;6.376;-10.782;2022-10-13T00:03:40;20.80;;;13.68;;
56321;SDS011;42227;6.376;-10.782;2022-10-13T00:06:15;23.92;;;13.40;;
56321;SDS011;42227;6.376;-10.782;2022-10-13T00:08:44;18.98;;;13.82;;
56321;SDS011;42227;6.376;-10.782;2022-10-13T00:13:44;23.98;;;15.32;;
56321;SDS011;42227;6.376;-10.782;2022-10-13T00:16:14;19.27;;;13.88;;
56321;SDS011;42227;6.376;-10.782;2022-10-13T00:18:44;22.27;;;15.07;;
56321;SDS011;42227;6.376;-10.782;2022-10-13T00:21:13;27.40;;;17.88;;
56321;SDS011;42227;6.376;-10.782;2022-10-13T00:23:44;17.47;;;14.83;;
56321;SDS011;42227;6.376;-10.782;2022-10-13T00:26:17;25.88;;;16.67;;
56321;SDS011;42227;6.376;-10.782;2022-10-13T00:28:46;38.03;;;17.42;;
56321;SDS011;42227;6.376;-10.782;2022-10-13T00:31:23;18.98;;;16.95;;
56321;SDS011;42227;6.376;-10.782;2022-10-13T00:33:53;26.75;;;17.35;;
56321;SDS011;42227;6.376;-10.782;2022-10-13T00:36:22;34.30;;;17.85;;
56321;SDS011;42227;6.376;-10.782;2022-10-13T00:38:51;21.52;;;15.50;;
56321;SDS011;42227;6.376;-10.782;2022-10-13T00:41:20;23.73;;;16.98;;
56321;SDS011;42227;6.376;-10.782;2022-10-13T00:46:20;33.58;;;16.30;;
56321;SDS011;42227;6.376;-10.782;2022-10-13T00:48:56;22.50;;;15.73;;
56321;SDS011;42227;6.376;-10.782;2022-10-13T00:51:31;34.20;;;15.88;;
56321;SDS011;42227;6.376;-10.782;2022-10-13T00:54:03;24.35;;;14.48;;
56321;SDS011;42227;6.376;-10.782;2022-10-13T00:56:33;25.20;;;13.50;;
56321;SDS011;42227;6.376;-10.782;2022-10-13T00:59:07;32.03;;;17.33;;
56321;SDS011;42227;6.376;-10.782;2022-10-13T01:01:43;38.63;;;16.98;;
56321;SDS011;42227;6.376;-10.782;2022-10-13T01:04:11;22.63;;;18.17;;
56321;SDS011;42227;6.376;-10.782;2022-10-13T01:06:39;30.90;;;19.35;;
56321;SDS011;42227;6.376;-10.782;2022-10-13T01:09:11;25.48;;;17.30;;
56321;SDS011;42227;6.376;-10.782;2022-10-13T01:30:51;15.27;;;12.88;;
56321;SDS011;42227;6.376;-10.782;2022-10-13T01:33:34;23.08;;;12.80;;
56321;SDS011;42227;6.376;-10.782;2022-10-13T01:36:19;19.42;;;10.20;;
56321;SDS011;42227;6.376;-10.782;2022-10-13T01:39:15;26.50;;;13.15;;
56321;SDS011;42227;6.376;-10.782;2022-10-13T01:41:52;24.15;;;12.20;;
56321;SDS011;42227;6.376;-10.782;2022-10-13T01:44:28;24.92;;;9.82;;
56321;SDS011;42227;6.376;-10.782;2022-10-13T01:47:01;16.13;;;10.38;;
56321;SDS011;42227;6.376;-10.782;2022-10-13T01:49:32;13.35;;;10.65;;
56321;SDS011;42227;6.376;-10.782;2022-10-13T01:52:03;20.20;;;11.48;;
56321;SDS011;42227;6.376;-10.782;2022-10-13T01:54:35;19.85;;;10.45;;
56321;SDS011;42227;6.376;-10.782;2022-10-13T01:57:03;26.60;;;13.70;;
56321;SDS011;42227;6.376;-10.782;2022-10-13T01:59:51;16.20;;;11.55;;
56321;SDS011;42227;6.376;-10.782;2022-10-13T02:02:25;19.00;;;11.48;;
56321;SDS011;42227;6.376;-10.782;2022-10-13T02:10:39;18.40;;;12.45;;
56321;SDS011;42227;6.376;-10.782;2022-10-13T02:13:18;21.20;;;11.23;;
56321;SDS011;42227;6.376;-10.782;2022-10-13T02:15:50;15.50;;;10.45;;
56321;SDS011;42227;6.376;-10.782;2022-10-13T02:18:22;17.73;;;10.52;;
56321;SDS011;42227;6.376;-10.782;2022-10-13T02:20:55;21.73;;;10.88;;
56321;SDS011;42227;6.376;-10.782;2022-10-13T02:23:24;22.45;;;11.45;;
56321;SDS011;42227;6.376;-10.782;2022-10-13T02:25:54;21.85;;;11.15;;
56321;SDS011;42227;6.376;-10.782;2022-10-13T02:28:23;19.00;;;10.57;;
56321;SDS011;42227;6.376;-10.782;2022-10-13T02:30:53;21.13;;;11.80;;
56321;SDS011;42227;6.376;-10.782;2022-10-13T02:33:21;19.20;;;11.32;;
56321;SDS011;42227;6.376;-10.782;2022-10-13T02:35:49;16.83;;;10.93;;
56321;SDS011;42227;6.376;-10.782;2022-10-13T02:38:18;12.63;;;9.85;;
56321;SDS011;42227;6.376;-10.782;2022-10-13T02:40:46;27.33;;;11.65;;
56321;SDS011;42227;6.376;-10.782;2022-10-13T02:43:14;21.10;;;10.85;;
56321;SDS011;42227;6.376;-10.782;2022-10-13T02:45:42;17.00;;;10.60;;
56321;SDS011;42227;6.376;-10.782;2022-10-13T02:48:10;18.75;;;10.85;;
56321;SDS011;42227;6.376;-10.782;2022-10-13T02:50:38;24.80;;;10.88;;
56321;SDS011;42227;6.376;-10.782;2022-10-13T02:53:07;18.67;;;10.73;;
56321;SDS011;42227;6.376;-10.782;2022-10-13T02:55:35;18.20;;;10.90;;
56321;SDS011;42227;6.376;-10.782;2022-10-13T02:58:03;10.90;;;8.88;;
56321;SDS011;42227;6.376;-10.782;2022-10-13T03:00:31;16.58;;;9.80;;
56321;SDS011;42227;6.376;-10.782;2022-10-13T03:02:59;15.27;;;9.05;;
56321;SDS011;42227;6.376;-10.782;2022-10-13T03:05:28;24.27;;;10.68;;
56321;SDS011;42227;6.376;-10.782;2022-10-13T03:07:56;21.60;;;10.90;;
56321;SDS011;42227;6.376;-10.782;2022-10-13T03:10:24;19.98;;;11.05;;
56321;SDS011;42227;6.376;-10.782;2022-10-13T03:12:54;15.05;;;10.57;;
56321;SDS011;42227;6.376;-10.782;2022-10-13T03:15:23;21.05;;;11.98;;
56321;SDS011;42227;6.376;-10.782;2022-10-13T03:17:54;21.38;;;12.13;;
56321;SDS011;42227;6.376;-10.782;2022-10-13T03:20:22;12.30;;;10.65;;
56321;SDS011;42227;6.376;-10.782;2022-10-13T03:22:50;18.67;;;11.90;;
56321;SDS011;42227;6.376;-10.782;2022-10-13T03:25:18;16.75;;;11.52;;
56321;SDS011;42227;6.376;-10.782;2022-10-13T03:27:46;20.48;;;13.05;;
56321;SDS011;42227;6.376;-10.782;2022-10-13T03:30:14;23.83;;;14.18;;
56321;SDS011;42227;6.376;-10.782;2022-10-13T03:32:42;22.00;;;14.90;;
56321;SDS011;42227;6.376;-10.782;2022-10-13T03:35:11;23.90;;;16.35;;
56321;SDS011;42227;6.376;-10.782;2022-10-13T03:37:39;31.90;;;18.10;;
56321;SDS011;42227;6.376;-10.782;2022-10-13T03:40:07;32.47;;;18.90;;
56321;SDS011;42227;6.376;-10.782;2022-10-13T03:42:36;24.52;;;18.65;;
56321;SDS011;42227;6.376;-10.782;2022-10-13T03:45:05;30.83;;;21.35;;
56321;SDS011;42227;6.376;-10.782;2022-10-13T03:47:34;37.65;;;21.23;;
56321;SDS011;42227;6.376;-10.782;2022-10-13T03:50:04;40.53;;;20.98;;
56321;SDS011;42227;6.376;-10.782;2022-10-13T03:52:32;32.83;;;21.40;;
56321;SDS011;42227;6.376;-10.782;2022-10-13T03:55:00;32.80;;;20.17;;
56321;SDS011;42227;6.376;-10.782;2022-10-13T03:57:29;35.25;;;22.27;;
56321;SDS011;42227;6.376;-10.782;2022-10-13T03:59:57;30.45;;;23.20;;
56321;SDS011;42227;6.376;-10.782;2022-10-13T04:02:27;33.42;;;23.42;;
56321;SDS011;42227;6.376;-10.782;2022-10-13T04:04:57;39.25;;;22.48;;
56321;SDS011;42227;6.376;-10.782;2022-10-13T04:07:26;36.35;;;23.35;;
56321;SDS011;42227;6.376;-10.782;2022-10-13T04:09:54;39.65;;;22.02;;
56321;SDS011;42227;6.376;-10.782;2022-10-13T04:12:22;42.25;;;25.58;;
56321;SDS011;42227;6.376;-10.782;2022-10-13T04:14:51;41.40;;;24.75;;
56321;SDS011;42227;6.376;-10.782;2022-10-13T04:17:19;32.10;;;22.83;;
56321;SDS011;42227;6.376;-10.782;2022-10-13T04:19:47;49.25;;;27.92;;
56321;SDS011;42227;6.376;-10.782;2022-10-13T04:22:15;36.92;;;23.55;;
56321;SDS011;42227;6.376;-10.782;2022-10-13T04:24:46;31.77;;;23.40;;
56321;SDS011;42227;6.376;-10.782;2022-10-13T04:27:14;38.03;;;23.33;;
56321;SDS011;42227;6.376;-10.782;2022-10-13T04:29:42;30.40;;;23.00;;
56321;SDS011;42227;6.376;-10.782;2022-10-13T04:32:11;30.95;;;22.35;;
56321;SDS011;42227;6.376;-10.782;2022-10-13T04:34:39;37.85;;;22.58;;
56321;SDS011;42227;6.376;-10.782;2022-10-13T04:37:07;36.65;;;21.80;;
56321;SDS011;42227;6.376;-10.782;2022-10-13T04:39:35;21.67;;;17.80;;
56321;SDS011;42227;6.376;-10.782;2022-10-13T04:42:03;27.05;;;19.17;;
56321;SDS011;42227;6.376;-10.782;2022-10-13T04:44:35;27.60;;;18.42;;
56321;SDS011;42227;6.376;-10.782;2022-10-13T04:47:05;36.28;;;18.38;;
56321;SDS011;42227;6.376;-10.782;2022-10-13T04:49:34;25.67;;;16.27;;
56321;SDS011;42227;6.376;-10.782;2022-10-13T04:52:02;26.60;;;16.63;;
56321;SDS011;42227;6.376;-10.782;2022-10-13T04:54:30;21.60;;;15.50;;
56321;SDS011;42227;6.376;-10.782;2022-10-13T04:56:58;21.67;;;14.70;;
56321;SDS011;42227;6.376;-10.782;2022-10-13T04:59:27;23.25;;;13.25;;
56321;SDS011;42227;6.376;-10.782;2022-10-13T05:01:55;24.92;;;13.23;;
56321;SDS011;42227;6.376;-10.782;2022-10-13T05:04:23;25.08;;;13.95;;
56321;SDS011;42227;6.376;-10.782;2022-10-13T05:06:51;16.25;;;10.98;;
56321;SDS011;42227;6.376;-10.782;2022-10-13T05:09:40;17.90;;;13.63;;
56321;SDS011;42227;6.376;-10.782;2022-10-13T05:12:11;17.52;;;13.20;;
56321;SDS011;42227;6.376;-10.782;2022-10-13T05:14:39;16.95;;;12.73;;
56321;SDS011;42227;6.376;-10.782;2022-10-13T05:17:07;28.25;;;12.30;;
56321;SDS011;42227;6.376;-10.782;2022-10-13T05:19:35;20.50;;;11.88;;
56321;SDS011;42227;6.376;-10.782;2022-10-13T05:22:04;21.25;;;11.65;;
56321;SDS011;42227;6.376;-10.782;2022-10-13T05:24:32;14.57;;;10.45;;
56321;SDS011;42227;6.376;-10.782;2022-10-13T05:27:04;22.65;;;10.60;;
56321;SDS011;42227;6.376;-10.782;2022-10-13T05:29:34;15.10;;;10.88;;
56321;SDS011;42227;6.376;-10.782;2022-10-13T05:32:02;18.77;;;12.43;;
56321;SDS011;42227;6.376;-10.782;2022-10-13T05:34:31;16.88;;;12.35;;
56321;SDS011;42227;6.376;-10.782;2022-10-13T05:36:59;20.75;;;12.02;;
56321;SDS011;42227;6.376;-10.782;2022-10-13T05:39:31;18.25;;;13.07;;
56321;SDS011;42227;6.376;-10.782;2022-10-13T05:42:00;21.58;;;18.65;;
56321;SDS011;42227;6.376;-10.782;2022-10-13T05:44:28;25.85;;;15.93;;
56321;SDS011;42227;6.376;-10.782;2022-10-13T05:46:56;25.35;;;13.93;;
56321;SDS011;42227;6.376;-10.782;2022-10-13T05:49:29;27.90;;;14.32;;
56321;SDS011;42227;6.376;-10.782;2022-10-13T05:52:09;23.30;;;15.02;;
56321;SDS011;42227;6.376;-10.782;2022-10-13T05:54:40;20.35;;;12.70;;
56321;SDS011;42227;6.376;-10.782;2022-10-13T05:57:14;14.02;;;12.25;;
56321;SDS011;42227;6.376;-10.782;2022-10-13T06:02:20;14.48;;;11.65;;
56321;SDS011;42227;6.376;-10.782;2022-10-13T06:07:21;21.17;;;14.10;;
56321;SDS011;42227;6.376;-10.782;2022-10-13T06:09:50;16.98;;;12.48;;
56321;SDS011;42227;6.376;-10.782;2022-10-13T06:12:18;22.20;;;12.85;;
56321;SDS011;42227;6.376;-10.782;2022-10-13T06:14:47;18.42;;;12.95;;
56321;SDS011;42227;6.376;-10.782;2022-10-13T06:17:15;21.50;;;13.98;;
56321;SDS011;42227;6.376;-10.782;2022-10-13T06:19:45;24.40;;;12.38;;
56321;SDS011;42227;6.376;-10.782;2022-10-13T06:22:14;29.15;;;14.50;;
56321;SDS011;42227;6.376;-10.782;2022-10-13T06:24:43;22.38;;;12.18;;
56321;SDS011;42227;6.376;-10.782;2022-10-13T06:27:11;21.27;;;11.38;;
56321;SDS011;42227;6.376;-10.782;2022-10-13T06:29:39;19.92;;;12.43;;
56321;SDS011;42227;6.376;-10.782;2022-10-13T06:32:08;26.70;;;13.32;;
56321;SDS011;42227;6.376;-10.782;2022-10-13T06:34:36;14.23;;;10.88;;
56321;SDS011;42227;6.376;-10.782;2022-10-13T06:37:04;17.23;;;13.25;;
56321;SDS011;42227;6.376;-10.782;2022-10-13T06:39:32;15.57;;;11.18;;
56321;SDS011;42227;6.376;-10.782;2022-10-13T06:42:02;17.98;;;10.88;;
56321;SDS011;42227;6.376;-10.782;2022-10-13T06:44:36;24.50;;;12.73;;
56321;SDS011;42227;6.376;-10.782;2022-10-13T06:47:04;22.08;;;12.68;;
56321;SDS011;42227;6.376;-10.782;2022-10-13T06:49:32;25.42;;;12.43;;
56321;SDS011;42227;6.376;-10.782;2022-10-13T06:52:00;19.75;;;12.57;;
56321;SDS011;42227;6.376;-10.782;2022-10-13T06:54:29;19.42;;;13.93;;
56321;SDS011;42227;6.376;-10.782;2022-10-13T06:56:57;12.73;;;11.23;;
56321;SDS011;42227;6.376;-10.782;2022-10-13T06:59:26;19.15;;;10.05;;
56321;SDS011;42227;6.376;-10.782;2022-10-13T07:01:54;19.70;;;10.70;;
56321;SDS011;42227;6.376;-10.782;2022-10-13T07:04:22;11.13;;;8.82;;
56321;SDS011;42227;6.376;-10.782;2022-10-13T07:06:53;21.70;;;10.17;;
56321;SDS011;42227;6.376;-10.782;2022-10-13T07:09:21;23.35;;;12.90;;
56321;SDS011;42227;6.376;-10.782;2022-10-13T07:11:50;15.93;;;9.30;;
56321;SDS011;42227;6.376;-10.782;2022-10-13T07:14:18;12.63;;;8.98;;
56321;SDS011;42227;6.376;-10.782;2022-10-13T07:16:47;17.40;;;10.73;;
56321;SDS011;42227;6.376;-10.782;2022-10-13T07:19:15;20.05;;;10.13;;
56321;SDS011;42227;6.376;-10.782;2022-10-13T07:21:43;13.13;;;10.27;;
56321;SDS011;42227;6.376;-10.782;2022-10-13T07:24:11;11.13;;;8.65;;
56321;SDS011;42227;6.376;-10.782;2022-10-13T07:26:41;13.98;;;10.40;;
56321;SDS011;42227;6.376;-10.782;2022-10-13T07:29:09;14.10;;;10.52;;
56321;SDS011;42227;6.376;-10.782;2022-10-13T07:31:37;11.05;;;9.93;;
56321;SDS011;42227;6.376;-10.782;2022-10-13T07:34:05;12.70;;;10.40;;
56321;SDS011;42227;6.376;-10.782;2022-10-13T07:36:34;16.48;;;11.07;;
56321;SDS011;42227;6.376;-10.782;2022-10-13T07:39:02;16.42;;;10.60;;
56321;SDS011;42227;6.376;-10.782;2022-10-13T07:41:31;13.07;;;9.13;;
56321;SDS011;42227;6.376;-10.782;2022-10-13T07:43:59;12.88;;;10.25;;
56321;SDS011;42227;6.376;-10.782;2022-10-13T07:46:27;16.10;;;10.57;;
56321;SDS011;42227;6.376;-10.782;2022-10-13T07:48:56;11.70;;;9.00;;
56321;SDS011;42227;6.376;-10.782;2022-10-13T07:51:24;13.20;;;9.57;;
56321;SDS011;42227;6.376;-10.782;2022-10-13T07:53:53;10.77;;;8.48;;
56321;SDS011;42227;6.376;-10.782;2022-10-13T07:56:21;13.23;;;8.43;;
56321;SDS011;42227;6.376;-10.782;2022-10-13T07:58:49;14.20;;;9.65;;
56321;SDS011;42227;6.376;-10.782;2022-10-13T08:01:17;12.60;;;7.95;;
56321;SDS011;42227;6.376;-10.782;2022-10-13T08:03:45;14.93;;;8.40;;
56321;SDS011;42227;6.376;-10.782;2022-10-13T08:06:19;14.45;;;9.70;;
56321;SDS011;42227;6.376;-10.782;2022-10-13T08:08:49;19.88;;;8.80;;
56321;SDS011;42227;6.376;-10.782;2022-10-13T08:11:19;16.42;;;10.35;;
56321;SDS011;42227;6.376;-10.782;2022-10-13T08:13:48;16.42;;;9.15;;
56321;SDS011;42227;6.376;-10.782;2022-10-13T08:16:19;8.93;;;7.05;;
56321;SDS011;42227;6.376;-10.782;2022-10-13T08:18:48;18.92;;;8.68;;
56321;SDS011;42227;6.376;-10.782;2022-10-13T08:21:16;13.13;;;8.45;;
56321;SDS011;42227;6.376;-10.782;2022-10-13T08:24:07;21.10;;;9.97;;
56321;SDS011;42227;6.376;-10.782;2022-10-13T08:26:38;14.77;;;8.35;;
56321;SDS011;42227;6.376;-10.782;2022-10-13T08:29:07;15.32;;;8.10;;
56321;SDS011;42227;6.376;-10.782;2022-10-13T08:31:48;11.75;;;5.53;;
56321;SDS011;42227;6.376;-10.782;2022-10-13T08:34:17;16.92;;;6.25;;
56321;SDS011;42227;6.376;-10.782;2022-10-13T08:36:45;10.07;;;4.90;;
56321;SDS011;42227;6.376;-10.782;2022-10-13T08:39:14;10.55;;;5.60;;
56321;SDS011;42227;6.376;-10.782;2022-10-13T08:41:42;12.25;;;6.00;;
56321;SDS011;42227;6.376;-10.782;2022-10-13T08:44:15;7.15;;;5.32;;
56321;SDS011;42227;6.376;-10.782;2022-10-13T08:47:10;5.70;;;4.70;;
56321;SDS011;42227;6.376;-10.782;2022-10-13T08:49:46;8.75;;;5.88;;
56321;SDS011;42227;6.376;-10.782;2022-10-13T08:52:19;7.63;;;5.00;;
56321;SDS011;42227;6.376;-10.782;2022-10-13T08:54:53;7.38;;;4.00;;
56321;SDS011;42227;6.376;-10.782;2022-10-13T08:57:23;4.90;;;4.10;;
56321;SDS011;42227;6.376;-10.782;2022-10-13T08:59:52;10.48;;;5.05;;
56321;SDS011;42227;6.376;-10.782;2022-10-13T09:02:28;6.57;;;4.55;;
56321;SDS011;42227;6.376;-10.782;2022-10-13T09:04:58;9.60;;;5.60;;
56321;SDS011;42227;6.376;-10.782;2022-10-13T09:07:30;7.57;;;5.47;;
56321;SDS011;42227;6.376;-10.782;2022-10-13T09:10:01;11.05;;;6.22;;
56321;SDS011;42227;6.376;-10.782;2022-10-13T09:12:30;10.85;;;6.55;;
56321;SDS011;42227;6.376;-10.782;2022-10-13T09:15:00;6.95;;;5.70;;
56321;SDS011;42227;6.376;-10.782;2022-10-13T09:17:31;6.32;;;5.60;;
56321;SDS011;42227;6.376;-10.782;2022-10-13T09:20:02;10.48;;;6.63;;
56321;SDS011;42227;6.376;-10.782;2022-10-13T09:22:32;9.43;;;5.43;;
56321;SDS011;42227;6.376;-10.782;2022-10-13T09:27:51;14.13;;;5.82;;
56321;SDS011;42227;6.376;-10.782;2022-10-13T09:30:24;13.50;;;6.60;;
56321;SDS011;42227;6.376;-10.782;2022-10-13T09:38:16;9.07;;;6.60;;
56321;SDS011;42227;6.376;-10.782;2022-10-13T09:43:40;12.13;;;6.85;;
56321;SDS011;42227;6.376;-10.782;2022-10-13T09:46:32;15.25;;;7.63;;
56321;SDS011;42227;6.376;-10.782;2022-10-13T09:49:04;7.63;;;5.95;;
56321;SDS011;42227;6.376;-10.782;2022-10-13T09:52:12;15.82;;;7.03;;
56321;SDS011;42227;6.376;-10.782;2022-10-13T09:57:34;16.27;;;7.65;;
56321;SDS011;42227;6.376;-10.782;2022-10-13T10:00:19;11.90;;;8.82;;
56321;SDS011;42227;6.376;-10.782;2022-10-13T10:02:55;10.63;;;5.63;;
56321;SDS011;42227;6.376;-10.782;2022-10-13T10:05:50;14.88;;;5.93;;
56321;SDS011;42227;6.376;-10.782;2022-10-13T10:11:30;13.40;;;6.55;;
56321;SDS011;42227;6.376;-10.782;2022-10-13T10:14:17;8.48;;;4.20;;
56321;SDS011;42227;6.376;-10.782;2022-10-13T10:16:55;16.50;;;5.65;;
56321;SDS011;42227;6.376;-10.782;2022-10-13T10:19:43;10.15;;;5.40;;
56321;SDS011;42227;6.376;-10.782;2022-10-13T10:25:50;8.52;;;6.57;;
56321;SDS011;42227;6.376;-10.782;2022-10-13T10:34:02;7.45;;;5.30;;
56321;SDS011;42227;6.376;-10.782;2022-10-13T10:36:52;5.47;;;4.45;;
56321;SDS011;42227;6.376;-10.782;2022-10-13T10:39:36;6.88;;;4.75;;
56321;SDS011;42227;6.376;-10.782;2022-10-13T10:42:59;8.20;;;5.13;;
56321;SDS011;42227;6.376;-10.782;2022-10-13T10:45:26;10.63;;;6.18;;
56321;SDS011;42227;6.376;-10.782;2022-10-13T10:47:58;12.13;;;6.80;;
56321;SDS011;42227;6.376;-10.782;2022-10-13T10:50:29;9.27;;;5.55;;
56321;SDS011;42227;6.376;-10.782;2022-10-13T10:53:00;8.07;;;5.30;;
56321;SDS011;42227;6.376;-10.782;2022-10-13T10:58:25;8.88;;;3.95;;
56321;SDS011;42227;6.376;-10.782;2022-10-13T11:01:26;13.05;;;5.90;;
56321;SDS011;42227;6.376;-10.782;2022-10-13T11:06:58;8.02;;;4.95;;
56321;SDS011;42227;6.376;-10.782;2022-10-13T11:15:22;8.40;;;5.43;;
56321;SDS011;42227;6.376;-10.782;2022-10-13T11:17:55;16.23;;;6.30;;
56321;SDS011;42227;6.376;-10.782;2022-10-13T11:20:57;11.95;;;5.15;;
56321;SDS011;42227;6.376;-10.782;2022-10-13T11:23:25;8.90;;;5.47;;
56321;SDS011;42227;6.376;-10.782;2022-10-13T11:26:18;11.15;;;5.57;;
56321;SDS011;42227;6.376;-10.782;2022-10-13T11:28:58;16.65;;;4.93;;
56321;SDS011;42227;6.376;-10.782;2022-10-13T11:31:28;15.27;;;5.30;;
56321;SDS011;42227;6.376;-10.782;2022-10-13T11:34:02;8.90;;;4.03;;
56321;SDS011;42227;6.376;-10.782;2022-10-13T11:39:23;10.60;;;3.72;;
56321;SDS011;42227;6.376;-10.782;2022-10-13T11:42:23;12.77;;;6.38;;
56321;SDS011;42227;6.376;-10.782;2022-10-13T11:59:17;10.43;;;3.65;;
56321;SDS011;42227;6.376;-10.782;2022-10-13T12:01:53;8.75;;;3.42;;
56321;SDS011;42227;6.376;-10.782;2022-10-13T12:04:23;10.30;;;4.13;;
56321;SDS011;42227;6.376;-10.782;2022-10-13T12:06:54;13.32;;;3.97;;
56321;SDS011;42227;6.376;-10.782;2022-10-13T12:09:28;10.20;;;3.80;;
56321;SDS011;42227;6.376;-10.782;2022-10-13T12:12:02;5.97;;;3.10;;
56321;SDS011;42227;6.376;-10.782;2022-10-13T12:14:40;9.37;;;3.57;;
56321;SDS011;42227;6.376;-10.782;2022-10-13T12:20:21;9.38;;;4.30;;
56321;SDS011;42227;6.376;-10.782;2022-10-13T12:22:52;8.40;;;3.80;;
56321;SDS011;42227;6.376;-10.782;2022-10-13T12:25:22;13.30;;;4.50;;
56321;SDS011;42227;6.376;-10.782;2022-10-13T12:27:57;23.00;;;4.38;;
56321;SDS011;42227;6.376;-10.782;2022-10-13T12:30:30;8.95;;;5.28;;
56321;SDS011;42227;6.376;-10.782;2022-10-13T12:33:02;9.02;;;4.72;;
56321;SDS011;42227;6.376;-10.782;2022-10-13T12:35:43;10.07;;;5.00;;
56321;SDS011;42227;6.376;-10.782;2022-10-13T12:38:20;19.73;;;5.13;;
56321;SDS011;42227;6.376;-10.782;2022-10-13T12:40:50;8.30;;;3.78;;
56321;SDS011;42227;6.376;-10.782;2022-10-13T12:43:22;10.52;;;4.68;;
56321;SDS011;42227;6.376;-10.782;2022-10-13T12:45:52;20.17;;;5.15;;
56321;SDS011;42227;6.376;-10.782;2022-10-13T12:51:16;5.72;;;4.13;;
56321;SDS011;42227;6.376;-10.782;2022-10-13T12:53:51;10.73;;;4.72;;
56321;SDS011;42227;6.376;-10.782;2022-10-13T12:56:29;10.15;;;4.03;;
56321;SDS011;42227;6.376;-10.782;2022-10-13T12:58:58;8.60;;;3.72;;
56321;SDS011;42227;6.376;-10.782;2022-10-13T13:01:34;6.15;;;4.20;;
56321;SDS011;42227;6.376;-10.782;2022-10-13T13:04:17;9.40;;;4.38;;
56321;SDS011;42227;6.376;-10.782;2022-10-13T13:09:33;6.18;;;3.85;;
56321;SDS011;42227;6.376;-10.782;2022-10-13T13:12:04;7.32;;;3.58;;
56321;SDS011;42227;6.376;-10.782;2022-10-13T13:14:39;6.13;;;3.80;;
56321;SDS011;42227;6.376;-10.782;2022-10-13T13:20:17;12.35;;;5.10;;
56321;SDS011;42227;6.376;-10.782;2022-10-13T13:23:06;10.48;;;3.53;;
56321;SDS011;42227;6.376;-10.782;2022-10-13T13:25:34;10.32;;;3.50;;
56321;SDS011;42227;6.376;-10.782;2022-10-13T13:28:03;5.88;;;3.33;;
56321;SDS011;42227;6.376;-10.782;2022-10-13T13:30:36;10.30;;;4.03;;
56321;SDS011;42227;6.376;-10.782;2022-10-13T13:33:05;10.68;;;3.30;;
56321;SDS011;42227;6.376;-10.782;2022-10-13T13:35:34;7.43;;;3.38;;
56321;SDS011;42227;6.376;-10.782;2022-10-13T13:38:04;6.38;;;3.65;;
56321;SDS011;42227;6.376;-10.782;2022-10-13T13:40:32;7.93;;;2.72;;
56321;SDS011;42227;6.376;-10.782;2022-10-13T13:43:01;5.47;;;3.60;;
56321;SDS011;42227;6.376;-10.782;2022-10-13T13:45:29;8.45;;;3.70;;
56321;SDS011;42227;6.376;-10.782;2022-10-13T13:48:00;13.23;;;4.17;;
56321;SDS011;42227;6.376;-10.782;2022-10-13T13:50:34;4.63;;;2.78;;
56321;SDS011;42227;6.376;-10.782;2022-10-13T13:53:03;4.72;;;3.25;;
56321;SDS011;42227;6.376;-10.782;2022-10-13T13:55:32;9.27;;;3.90;;
56321;SDS011;42227;6.376;-10.782;2022-10-13T14:00:32;10.93;;;3.85;;
56321;SDS011;42227;6.376;-10.782;2022-10-13T14:03:00;14.30;;;6.03;;
56321;SDS011;42227;6.376;-10.782;2022-10-13T14:05:29;12.60;;;7.15;;
56321;SDS011;42227;6.376;-10.782;2022-10-13T14:07:58;15.15;;;6.15;;
56321;SDS011;42227;6.376;-10.782;2022-10-13T14:10:26;10.55;;;4.53;;
56321;SDS011;42227;6.376;-10.782;2022-10-13T14:12:54;17.48;;;5.05;;
56321;SDS011;42227;6.376;-10.782;2022-10-13T14:15:23;10.32;;;5.05;;
56321;SDS011;42227;6.376;-10.782;2022-10-13T14:17:55;12.02;;;6.55;;
56321;SDS011;42227;6.376;-10.782;2022-10-13T14:20:24;23.45;;;6.43;;
56321;SDS011;42227;6.376;-10.782;2022-10-13T14:22:52;11.10;;;5.75;;
56321;SDS011;42227;6.376;-10.782;2022-10-13T14:25:20;12.50;;;4.43;;
56321;SDS011;42227;6.376;-10.782;2022-10-13T14:27:49;10.45;;;5.57;;
56321;SDS011;42227;6.376;-10.782;2022-10-13T14:30:18;9.63;;;5.57;;
56321;SDS011;42227;6.376;-10.782;2022-10-13T14:32:46;15.73;;;7.38;;
56321;SDS011;42227;6.376;-10.782;2022-10-13T14:35:15;10.60;;;3.83;;
56321;SDS011;42227;6.376;-10.782;2022-10-13T14:37:43;9.13;;;4.22;;
56321;SDS011;42227;6.376;-10.782;2022-10-13T14:40:11;9.30;;;4.75;;
56321;SDS011;42227;6.376;-10.782;2022-10-13T14:42:40;9.75;;;4.78;;
56321;SDS011;42227;6.376;-10.782;2022-10-13T14:45:14;6.88;;;4.43;;
56321;SDS011;42227;6.376;-10.782;2022-10-13T14:47:42;6.80;;;3.95;;
56321;SDS011;42227;6.376;-10.782;2022-10-13T14:50:10;12.43;;;5.82;;
56321;SDS011;42227;6.376;-10.782;2022-10-13T14:58:52;7.30;;;4.07;;
56321;SDS011;42227;6.376;-10.782;2022-10-13T15:01:28;7.50;;;4.95;;
56321;SDS011;42227;6.376;-10.782;2022-10-13T15:03:57;5.50;;;3.17;;
56321;SDS011;42227;6.376;-10.782;2022-10-13T15:06:29;5.63;;;3.38;;
56321;SDS011;42227;6.376;-10.782;2022-10-13T15:08:58;8.63;;;4.38;;
56321;SDS011;42227;6.376;-10.782;2022-10-13T15:11:27;9.10;;;5.47;;
56321;SDS011;42227;6.376;-10.782;2022-10-13T15:13:55;22.98;;;5.95;;
56321;SDS011;42227;6.376;-10.782;2022-10-13T15:16:25;11.95;;;6.00;;
56321;SDS011;42227;6.376;-10.782;2022-10-13T15:18:55;8.65;;;4.40;;
56321;SDS011;42227;6.376;-10.782;2022-10-13T15:21:23;12.20;;;4.10;;
56321;SDS011;42227;6.376;-10.782;2022-10-13T15:23:52;12.63;;;3.90;;
56321;SDS011;42227;6.376;-10.782;2022-10-13T15:26:20;11.43;;;5.97;;
56321;SDS011;42227;6.376;-10.782;2022-10-13T15:28:51;18.58;;;7.40;;
56321;SDS011;42227;6.376;-10.782;2022-10-13T15:31:20;29.83;;;17.17;;
56321;SDS011;42227;6.376;-10.782;2022-10-13T15:33:50;32.83;;;24.00;;
56321;SDS011;42227;6.376;-10.782;2022-10-13T15:36:21;13.63;;;8.70;;
56321;SDS011;42227;6.376;-10.782;2022-10-13T15:38:51;7.95;;;5.30;;
56321;SDS011;42227;6.376;-10.782;2022-10-13T15:41:19;21.00;;;15.18;;
56321;SDS011;42227;6.376;-10.782;2022-10-13T15:43:48;24.45;;;13.27;;
56321;SDS011;42227;6.376;-10.782;2022-10-13T15:46:16;27.63;;;14.63;;
56321;SDS011;42227;6.376;-10.782;2022-10-13T15:48:45;24.33;;;18.08;;
56321;SDS011;42227;6.376;-10.782;2022-10-13T15:51:15;32.88;;;22.52;;
56321;SDS011;42227;6.376;-10.782;2022-10-13T15:53:45;21.25;;;11.25;;
56321;SDS011;42227;6.376;-10.782;2022-10-13T15:56:14;8.52;;;5.43;;
56321;SDS011;42227;6.376;-10.782;2022-10-13T15:58:43;13.52;;;4.22;;
56321;SDS011;42227;6.376;-10.782;2022-10-13T16:01:12;13.82;;;10.20;;
56321;SDS011;42227;6.376;-10.782;2022-10-13T16:03:40;21.52;;;7.72;;
56321;SDS011;42227;6.376;-10.782;2022-10-13T16:06:09;8.40;;;4.70;;
56321;SDS011;42227;6.376;-10.782;2022-10-13T16:08:39;6.28;;;3.08;;
56321;SDS011;42227;6.376;-10.782;2022-10-13T16:11:08;12.20;;;4.65;;
56321;SDS011;42227;6.376;-10.782;2022-10-13T16:13:38;6.55;;;5.00;;
56321;SDS011;42227;6.376;-10.782;2022-10-13T16:16:07;6.30;;;3.35;;
56321;SDS011;42227;6.376;-10.782;2022-10-13T16:18:35;5.03;;;3.30;;
56321;SDS011;42227;6.376;-10.782;2022-10-13T16:23:44;4.43;;;3.67;;
56321;SDS011;42227;6.376;-10.782;2022-10-13T16:26:13;7.18;;;3.75;;
56321;SDS011;42227;6.376;-10.782;2022-10-13T16:28:42;7.03;;;4.10;;
56321;SDS011;42227;6.376;-10.782;2022-10-13T16:31:13;15.50;;;4.53;;
56321;SDS011;42227;6.376;-10.782;2022-10-13T16:33:43;11.80;;;6.32;;
56321;SDS011;42227;6.376;-10.782;2022-10-13T16:36:13;12.32;;;5.30;;